Time;durP1;ratioP1;P1;durP2;ratioP2;P2;SDS_P1;SDS_P2;PMS_P1;PMS_P2;Temp;Humidity;BMP_temperature;BMP_pressure;BME280_temperature;BME280_humidity;BME280_pressure;Samples;Min_cycle;Max_cycle;Signal;HPM_P1;HPM_P2
2021/08/01 00:00:03;;;;;;;;;;;18.10;99.90;;;16.88;92.54;94939.97;10295778;28;2030;-80
2021/08/01 00:05:06;;;;;;;;;;;17.90;99.90;;;16.73;94.73;94927.81;10327065;28;2329;-82
2021/08/01 00:10:08;;;;;;;;;;;17.80;99.90;;;16.58;93.79;94927.59;10314906;28;2364;-81
2021/08/01 00:15:11;;;;;;;;;;;17.70;99.90;;;16.49;95.56;94914.09;10326538;28;2311;-81
2021/08/01 00:20:14;;;;;;;;;;;17.50;99.90;;;16.42;97.86;94927.41;10331994;28;2372;-82
2021/08/01 00:25:17;;;;;;;;;;;17.50;99.90;;;16.38;100.00;94937.31;10321105;28;1887;-82
2021/08/01 00:30:19;;;;;;;;;;;17.40;99.90;;;16.32;100.00;94949.50;10331980;28;1810;-83
2021/08/01 00:35:22;;;;;;;;;;;17.30;99.90;;;16.23;100.00;94940.63;10336386;28;1155;-82
2021/08/01 00:40:25;;;;;;;;;;;17.30;99.90;;;16.23;100.00;94946.06;10319590;28;2416;-82
2021/08/01 00:45:28;;;;;;;;;;;17.20;99.90;;;15.86;100.00;94945.78;10329064;28;1891;-80
2021/08/01 00:50:31;;;;;;;;;;;17.00;99.90;;;15.55;100.00;94927.09;10321349;28;2484;-80
2021/08/01 00:55:34;;;;;;;;;;;16.60;99.90;;;15.37;100.00;94915.53;10320654;28;2396;-81
2021/08/01 01:00:52;;;;;;;;;;;16.40;99.90;;;15.24;100.00;94922.75;10314156;28;2385;-81
2021/08/01 01:05:55;;;;;;;;;;;16.20;99.90;;;15.10;100.00;94922.94;10304096;28;2531;-83
2021/08/01 01:10:58;;;;;;;;;;;16.10;99.90;;;14.87;100.00;94925.06;10307984;28;2539;-81
2021/08/01 01:16:14;;;;;;;;;;;15.90;99.90;;;14.73;100.00;94935.25;10308654;28;2565;-81
2021/08/01 01:21:18;;;;;;;;;;;15.70;99.90;;;14.56;100.00;94933.34;10303873;28;2075;-82
2021/08/01 01:26:21;;;;;;;;;;;15.60;99.90;;;14.28;100.00;94934.75;10313513;28;2001;-82
2021/08/01 01:31:24;;;;;;;;;;;15.30;99.90;;;14.07;100.00;94907.56;10323313;28;2399;-81
2021/08/01 01:36:27;;;;;;;;;;;15.10;99.90;;;13.81;100.00;94872.41;10308915;28;2539;-83
2021/08/01 01:41:29;;;;;;;;;;;14.80;99.90;;;13.66;100.00;94848.53;10295120;28;2566;-80
2021/08/01 01:46:32;;;;;;;;;;;14.60;99.90;;;13.52;100.00;94787.38;10301856;28;2570;-79
2021/08/01 01:51:35;;;;;;;;;;;14.50;99.90;;;13.30;100.00;94806.41;10307613;28;1940;-79
2021/08/01 01:56:38;;;;;;;;;;;14.30;99.90;;;13.30;100.00;94846.88;10300714;28;2448;-81
2021/08/01 02:01:41;;;;;;;;;;;14.20;99.90;;;13.32;100.00;94814.19;10291576;28;2574;-82
2021/08/01 02:06:44;;;;;;;;;;;14.30;99.90;;;13.27;100.00;94790.81;10286506;28;2724;-82
2021/08/01 02:11:47;;;;;;;;;;;14.20;99.90;;;13.22;100.00;94764.75;10284187;28;2542;-81
2021/08/01 02:16:50;;;;;;;;;;;14.10;99.90;;;13.26;100.00;94783.84;10287219;28;2570;-79
2021/08/01 02:21:52;;;;;;;;;;;14.10;99.90;;;13.33;100.00;94780.66;10286668;28;2599;-82
2021/08/01 02:26:55;;;;;;;;;;;14.20;99.90;;;13.33;100.00;94786.88;10286190;28;2559;-81
2021/08/01 02:31:58;;;;;;;;;;;14.10;99.90;;;13.35;100.00;94800.03;10305362;28;2819;-83
2021/08/01 02:37:01;;;;;;;;;;;14.20;99.90;;;13.33;100.00;94826.56;10288641;28;2575;-83
2021/08/01 02:42:03;;;;;;;;;;;14.20;99.90;;;13.35;100.00;94841.31;10288309;28;2567;-81
2021/08/01 02:47:06;;;;;;;;;;;14.30;99.90;;;13.31;100.00;94783.69;10295184;28;2519;-82
2021/08/01 02:52:09;;;;;;;;;;;14.20;99.90;;;13.21;100.00;94789.38;10288513;28;2380;-80
2021/08/01 02:57:12;;;;;;;;;;;14.20;99.90;;;13.20;100.00;94791.28;10292960;28;2550;-82
2021/08/01 03:02:15;;;;;;;;;;;14.20;99.90;;;13.19;100.00;94772.69;10297606;28;2697;-82
2021/08/01 03:07:18;;;;;;;;;;;14.10;99.90;;;13.16;100.00;94798.38;10304363;28;2281;-82
2021/08/01 03:12:20;;;;;;;;;;;14.10;99.90;;;13.06;100.00;94790.59;10304843;28;2614;-82
2021/08/01 03:17:23;;;;;;;;;;;14.00;99.90;;;13.01;100.00;94789.94;10294845;28;2653;-83
2021/08/01 03:22:26;;;;;;;;;;;14.00;99.90;;;13.13;100.00;94787.44;10304563;28;1964;-81
2021/08/01 03:27:29;;;;;;;;;;;14.00;99.90;;;13.14;100.00;94762.03;10312456;28;2550;-80
2021/08/01 03:32:32;;;;;;;;;;;14.00;99.90;;;13.46;100.00;94883.13;10326613;28;1234;-82
2021/08/01 03:37:35;;;;;;;;;;;14.20;99.90;;;13.81;100.00;94975.06;10301449;28;2211;-78
2021/08/01 03:42:38;;;;;;;;;;;14.60;99.90;;;12.79;100.00;94820.44;10287503;28;2542;-79
2021/08/01 03:47:41;;;;;;;;;;;14.10;99.90;;;12.80;100.00;94909.16;10298960;28;2577;-80
2021/08/01 03:52:44;;;;;;;;;;;13.80;99.90;;;12.92;100.00;94895.09;10285919;28;2567;-79
2021/08/01 03:57:47;;;;;;;;;;;13.80;99.90;;;12.85;100.00;94895.53;10282838;28;2507;-78
2021/08/01 04:02:49;;;;;;;;;;;13.80;99.90;;;12.80;100.00;94881.38;10288575;28;2470;-79
2021/08/01 04:07:52;;;;;;;;;;;13.70;99.90;;;12.79;100.00;94907.56;10274929;28;2565;-79
2021/08/01 04:12:55;;;;;;;;;;;13.70;99.90;;;12.82;100.00;94923.13;10288638;28;2619;-79
2021/08/01 04:18:18;;;;;;;;;;;13.70;99.90;;;12.79;100.00;94931.84;10300983;28;2286;-80
2021/08/01 04:23:21;;;;;;;;;;;13.70;99.90;;;12.91;100.00;94955.53;10318740;28;2254;-78
2021/08/01 04:28:24;;;;;;;;;;;13.80;99.90;;;13.05;100.00;94980.53;10322956;28;2336;-80
2021/08/01 04:33:26;;;;;;;;;;;13.80;99.90;;;13.10;100.00;94972.31;10321693;28;2324;-80
2021/08/01 04:38:29;;;;;;;;;;;13.90;99.90;;;13.01;100.00;94959.88;10312875;28;2651;-79
2021/08/01 04:43:32;;;;;;;;;;;13.90;99.90;;;12.97;100.00;94971.28;10306897;28;2295;-79
2021/08/01 04:48:34;;;;;;;;;;;13.90;99.90;;;12.97;100.00;94979.38;10301024;28;2417;-79
2021/08/01 04:53:37;;;;;;;;;;;13.90;99.90;;;13.04;100.00;94970.03;10295105;28;2353;-79
2021/08/01 04:58:40;;;;;;;;;;;13.80;99.90;;;12.86;100.00;94967.25;10283080;28;2492;-79
2021/08/01 05:03:43;;;;;;;;;;;13.80;99.90;;;12.85;100.00;94954.06;10294559;28;2341;-78
2021/08/01 05:08:46;;;;;;;;;;;13.70;99.90;;;12.87;100.00;94974.25;10286343;28;2393;-79
2021/08/01 05:13:48;;;;;;;;;;;13.70;99.90;;;12.89;100.00;94990.09;10288940;28;2830;-80
2021/08/01 05:18:51;;;;;;;;;;;13.70;99.90;;;12.95;100.00;95007.75;10292565;28;2354;-79
2021/08/01 05:23:54;;;;;;;;;;;13.80;99.90;;;12.92;100.00;95017.28;10283399;28;2365;-78
2021/08/01 05:28:57;;;;;;;;;;;13.80;99.90;;;12.91;100.00;95029.16;10285069;28;2324;-78
2021/08/01 05:33:59;;;;;;;;;;;13.80;99.90;;;13.08;100.00;95038.47;10277057;28;2447;-79
2021/08/01 05:39:02;;;;;;;;;;;13.90;99.90;;;13.03;100.00;95054.78;10289858;28;2468;-78
2021/08/01 05:44:05;;;;;;;;;;;13.90;99.90;;;12.97;100.00;95070.28;10279812;28;2758;-78
2021/08/01 05:49:08;;;;;;;;;;;13.90;99.90;;;12.99;100.00;95076.19;10278289;28;2463;-77
2021/08/01 05:54:10;;;;;;;;;;;13.90;99.90;;;13.01;100.00;95065.09;10274570;28;2544;-79
2021/08/01 05:59:14;;;;;;;;;;;13.90;99.90;;;12.93;100.00;95074.72;10278595;28;2433;-78
2021/08/01 06:04:17;;;;;;;;;;;13.90;99.90;;;13.09;100.00;95075.16;10283483;28;2529;-77
2021/08/01 06:09:20;;;;;;;;;;;13.90;99.90;;;13.09;100.00;95085.94;10306342;28;2207;-79
2021/08/01 06:14:22;;;;;;;;;;;13.90;99.90;;;13.00;100.00;95091.28;10320154;28;2339;-80
2021/08/01 06:19:25;;;;;;;;;;;13.90;99.90;;;12.91;100.00;95115.47;10308825;28;1850;-78
2021/08/01 06:24:28;;;;;;;;;;;13.90;99.90;;;13.07;100.00;95107.03;10328309;28;1883;-79
2021/08/01 06:29:31;;;;;;;;;;;13.90;99.90;;;12.97;100.00;95103.47;10323609;28;2329;-79
2021/08/01 06:34:33;;;;;;;;;;;13.90;99.90;;;13.13;100.00;95106.63;10282896;28;2326;-78
2021/08/01 06:39:36;;;;;;;;;;;13.90;99.90;;;13.39;100.00;95106.84;10268044;28;2306;-79
2021/08/01 06:44:39;;;;;;;;;;;14.10;99.90;;;13.61;100.00;95124.13;10282520;28;2130;-78
2021/08/01 06:49:42;;;;;;;;;;;14.20;99.90;;;13.96;100.00;95122.44;10271310;28;2377;-79
2021/08/01 06:54:57;;;;;;;;;;;14.50;99.90;;;14.22;100.00;95111.72;10282697;28;2496;-78
2021/08/01 07:00:00;;;;;;;;;;;14.80;99.90;;;14.35;100.00;95116.22;10284418;28;2290;-78
2021/08/01 07:05:03;;;;;;;;;;;15.00;99.90;;;14.75;100.00;95119.69;10278189;28;2344;-77
2021/08/01 07:10:06;;;;;;;;;;;15.30;99.90;;;15.23;96.78;95124.22;10291025;28;2394;-79
2021/08/01 07:15:08;;;;;;;;;;;15.70;99.90;;;15.36;93.63;95127.88;10302639;28;2266;-83
2021/08/01 07:20:11;;;;;;;;;;;15.90;99.90;;;15.22;97.02;95130.75;10293374;28;2254;-83
2021/08/01 07:25:14;;;;;;;;;;;15.90;99.90;;;15.24;96.15;95125.00;10302772;28;2206;-84
2021/08/01 07:30:18;;;;;;;;;;;15.90;99.90;;;15.41;91.08;95133.13;10301103;28;1569;-81
2021/08/01 07:35:21;;;;;;;;;;;16.00;99.90;;;15.62;90.37;95125.97;10308459;28;2385;-83
2021/08/01 07:40:28;;;;;;;;;;;16.10;99.90;;;15.88;91.92;95125.13;10292834;28;1992;-84
2021/08/01 07:45:34;;;;;;;;;;;16.20;99.90;;;16.31;88.38;95137.75;10312934;28;2484;-84
2021/08/01 07:50:40;;;;;;;;;;;16.70;99.90;;;15.93;86.45;95143.91;10312183;28;2322;-84
2021/08/01 07:55:49;;;;;;;;;;;16.80;99.90;;;16.02;85.92;95131.13;10305412;28;2154;-82
2021/08/01 08:00:52;;;;;;;;;;;16.80;99.90;;;16.04;87.77;95131.63;10291877;28;2296;-81
2021/08/01 08:06:05;;;;;;;;;;;16.70;99.90;;;15.84;88.33;95141.25;10306989;28;2305;-81
2021/08/01 08:11:10;;;;;;;;;;;16.60;99.90;;;15.78;88.08;95142.53;10307582;28;2345;-81
2021/08/01 08:16:13;;;;;;;;;;;16.50;99.90;;;16.01;86.19;95137.69;10292273;28;2356;-84
2021/08/01 08:21:16;;;;;;;;;;;16.60;99.90;;;15.90;86.33;95133.72;10285282;28;2834;-83
2021/08/01 08:26:19;;;;;;;;;;;16.70;99.90;;;16.06;82.50;95140.22;10293477;28;2346;-81
2021/08/01 08:31:22;;;;;;;;;;;16.80;99.90;;;16.50;79.17;95124.56;10274906;28;2377;-81
2021/08/01 08:36:24;;;;;;;;;;;17.00;99.90;;;16.31;81.90;95122.25;10292130;28;2275;-82
2021/08/01 08:41:27;;;;;;;;;;;17.20;99.90;;;17.16;79.97;95119.41;10292410;28;2371;-83
2021/08/01 08:46:30;;;;;;;;;;;17.50;99.90;;;17.26;80.97;95129.88;10292324;28;2381;-82
2021/08/01 08:51:33;;;;;;;;;;;17.80;99.90;;;17.68;79.61;95132.53;10285269;28;2401;-84
2021/08/01 08:56:35;;;;;;;;;;;18.20;99.90;;;17.99;76.31;95139.47;10290376;28;2651;-81
2021/08/01 09:01:38;;;;;;;;;;;18.30;99.90;;;18.15;74.83;95137.72;10284438;28;2330;-81
2021/08/01 09:06:41;;;;;;;;;;;18.60;99.90;;;18.60;74.26;95142.31;10282891;28;2362;-81
2021/08/01 09:11:44;;;;;;;;;;;18.80;99.90;;;18.26;74.42;95143.53;10305309;28;2330;-83
2021/08/01 09:16:48;;;;;;;;;;;18.90;99.90;;;18.63;74.64;95142.41;10312738;28;2326;-81
2021/08/01 09:21:51;;;;;;;;;;;19.00;99.90;;;18.43;72.44;95137.84;10287264;28;2247;-80
2021/08/01 09:26:57;;;;;;;;;;;19.10;99.90;;;18.64;72.40;95143.22;10299896;28;2048;-82
2021/08/01 09:32:00;;;;;;;;;;;19.10;99.90;;;19.16;69.06;95134.34;10292866;28;2303;-85
2021/08/01 09:37:03;;;;;;;;;;;19.60;99.90;;;19.38;72.24;95144.72;10299538;28;2332;-83
2021/08/01 09:42:06;;;;;;;;;;;19.80;99.90;;;19.33;73.05;95136.78;10296772;28;2430;-83
2021/08/01 09:47:09;;;;;;;;;;;20.00;99.90;;;19.16;70.65;95131.63;10321009;28;2201;-83
2021/08/01 09:52:12;;;;;;;;;;;19.90;99.90;;;19.47;69.67;95125.53;10305045;28;2293;-82
2021/08/01 09:57:15;;;;;;;;;;;20.00;99.90;;;19.03;68.43;95132.78;10296400;28;2338;-81
2021/08/01 10:02:18;;;;;;;;;;;19.90;99.90;;;18.65;70.72;95123.03;10313819;28;2369;-81
2021/08/01 10:07:20;;;;;;;;;;;19.40;99.90;;;19.43;69.99;95125.41;10296927;28;2690;-81
2021/08/01 10:12:23;;;;;;;;;;;19.50;99.90;;;18.95;74.63;95120.88;10292788;28;2326;-83
2021/08/01 10:17:26;;;;;;;;;;;19.60;99.90;;;17.74;77.45;95112.22;10277891;28;2334;-83
2021/08/01 10:22:29;;;;;;;;;;;19.00;99.90;;;17.12;84.37;95126.63;10282975;28;2241;-84
2021/08/01 10:27:33;;;;;;;;;;;18.30;99.90;;;17.15;81.13;95134.09;10298438;28;2360;-81
2021/08/01 10:32:36;;;;;;;;;;;18.10;99.90;;;17.48;82.91;95136.88;10311154;28;2302;-80
2021/08/01 10:37:40;;;;;;;;;;;18.10;99.90;;;17.90;78.45;95145.00;10322095;28;2372;-79
2021/08/01 10:42:43;;;;;;;;;;;18.40;99.90;;;17.53;83.46;95133.16;10294965;28;2302;-83
2021/08/01 10:47:46;;;;;;;;;;;18.40;99.90;;;17.48;87.64;95136.09;10287447;28;2250;-82
2021/08/01 10:52:48;;;;;;;;;;;18.30;99.90;;;17.07;88.78;95137.69;10274346;28;2269;-82
2021/08/01 10:57:51;;;;;;;;;;;18.00;99.90;;;16.48;88.13;95138.47;10280645;28;2282;-81
2021/08/01 11:02:54;;;;;;;;;;;17.60;99.90;;;16.15;94.76;95151.81;10287091;28;2440;-81
2021/08/01 11:07:56;;;;;;;;;;;17.20;99.90;;;15.84;94.95;95156.69;10281811;28;2681;-82
2021/08/01 11:13:00;;;;;;;;;;;16.90;99.90;;;15.74;100.00;95162.44;10278857;28;2345;-81
2021/08/01 11:18:02;;;;;;;;;;;16.70;99.90;;;15.37;99.37;95159.25;10275518;28;2445;-79
2021/08/01 11:23:06;;;;;;;;;;;16.50;99.90;;;14.86;98.34;95163.50;10294306;28;2373;-83
2021/08/01 11:28:08;;;;;;;;;;;16.20;99.90;;;14.86;100.00;95166.19;10280959;28;2211;-83
2021/08/01 11:33:11;;;;;;;;;;;15.80;99.90;;;14.84;100.00;95169.22;10297059;28;2302;-80
2021/08/01 11:38:14;;;;;;;;;;;15.70;99.90;;;14.68;100.00;95175.38;10314718;28;2191;-81
2021/08/01 11:43:17;;;;;;;;;;;15.50;99.90;;;14.51;100.00;95179.63;10284716;28;2294;-82
2021/08/01 11:48:20;;;;;;;;;;;15.40;99.90;;;14.39;100.00;95192.91;10282915;28;2327;-81
2021/08/01 11:53:23;;;;;;;;;;;15.30;99.90;;;14.03;100.00;95196.53;10290412;28;2396;-80
2021/08/01 11:58:25;;;;;;;;;;;15.10;99.90;;;13.86;100.00;95191.00;10288479;28;2282;-82
2021/08/01 12:03:28;;;;;;;;;;;14.80;99.90;;;13.81;100.00;95201.97;10286055;28;2284;-82
2021/08/01 12:08:31;;;;;;;;;;;14.80;99.90;;;13.61;100.00;95211.34;10283623;28;2830;-80
2021/08/01 12:13:34;;;;;;;;;;;14.70;99.90;;;13.68;100.00;95219.03;10293602;28;2254;-81
2021/08/01 12:18:36;;;;;;;;;;;14.60;99.90;;;13.71;100.00;95202.19;10289001;28;2249;-80
2021/08/01 12:23:39;;;;;;;;;;;14.60;99.90;;;13.74;100.00;95201.56;10301994;28;2499;-80
2021/08/01 12:28:42;;;;;;;;;;;14.70;99.90;;;13.83;100.00;95196.25;10296570;28;2266;-81
2021/08/01 12:33:45;;;;;;;;;;;14.60;99.90;;;13.74;100.00;95201.56;10299720;28;2308;-81
2021/08/01 12:38:47;;;;;;;;;;;14.60;99.90;;;13.71;100.00;95207.59;10295519;28;2039;-81
2021/08/01 12:43:50;;;;;;;;;;;14.60;99.90;;;13.83;100.00;95212.47;10291449;28;2317;-81
2021/08/01 12:48:53;;;;;;;;;;;14.60;99.90;;;14.02;100.00;95211.16;10304454;28;2346;-80
2021/08/01 12:53:58;;;;;;;;;;;14.80;99.90;;;14.32;100.00;95206.09;10291590;28;2324;-79
2021/08/01 12:59:01;;;;;;;;;;;15.00;99.90;;;14.77;100.00;95208.69;10287236;28;2373;-80
2021/08/01 13:04:03;;;;;;;;;;;15.30;99.90;;;15.26;100.00;95204.00;10286338;28;2448;-82
2021/08/01 13:09:06;;;;;;;;;;;15.70;99.90;;;15.47;100.00;95202.28;10313820;28;2352;-82
2021/08/01 13:14:09;;;;;;;;;;;16.00;99.90;;;15.37;100.00;95203.38;10299667;28;2269;-78
2021/08/01 13:19:12;;;;;;;;;;;16.20;99.90;;;15.25;100.00;95199.69;10300796;28;2275;-82
2021/08/01 13:24:16;;;;;;;;;;;16.10;99.90;;;15.05;100.00;95206.50;10295853;28;2408;-78
2021/08/01 13:29:18;;;;;;;;;;;16.10;99.90;;;14.69;100.00;95207.50;10295742;28;2262;-81
2021/08/01 13:34:21;;;;;;;;;;;15.80;99.90;;;15.06;100.00;95203.47;10313089;28;2314;-79
2021/08/01 13:39:24;;;;;;;;;;;15.70;99.90;;;15.45;100.00;95196.34;10304543;28;2386;-80
2021/08/01 13:44:27;;;;;;;;;;;16.00;99.90;;;15.92;100.00;95194.63;10313819;28;2365;-80
2021/08/01 13:49:30;;;;;;;;;;;16.40;99.90;;;16.68;100.00;95187.69;10315209;28;2750;-79
2021/08/01 13:54:33;;;;;;;;;;;16.90;99.90;;;16.93;100.00;95192.25;10303978;28;2317;-81
2021/08/01 13:59:36;;;;;;;;;;;17.40;99.90;;;17.56;100.00;95197.75;10320516;28;2341;-78
2021/08/01 14:04:38;;;;;;;;;;;17.90;99.90;;;17.67;95.22;95193.47;10304875;28;2413;-79
2021/08/01 14:09:41;;;;;;;;;;;18.20;99.90;;;17.79;90.75;95190.84;10310528;28;2369;-78
2021/08/01 14:14:44;;;;;;;;;;;18.40;99.90;;;18.14;87.52;95182.38;10309611;28;2496;-79
2021/08/01 14:19:47;;;;;;;;;;;18.70;99.90;;;18.21;86.72;95179.88;10310816;28;2824;-82
2021/08/01 14:24:50;;;;;;;;;;;18.90;99.90;;;17.92;91.69;95178.09;10306467;28;2587;-80
2021/08/01 14:29:53;;;;;;;;;;;18.90;99.90;;;17.53;88.74;95176.66;10300562;28;2745;-78
2021/08/01 14:34:55;;;;;;;;;;;18.60;99.90;;;17.55;90.51;95186.03;10312248;28;2578;-81
2021/08/01 14:39:58;;;;;;;;;;;18.30;99.90;;;17.68;88.20;95186.91;10280931;28;2143;-79
2021/08/01 14:45:01;;;;;;;;;;;18.30;99.90;;;17.73;92.60;95203.03;10304613;28;2384;-82
2021/08/01 14:50:15;;;;;;;;;;;18.40;99.90;;;17.79;93.61;95193.56;10305541;28;2242;-82
2021/08/01 14:55:18;;;;;;;;;;;18.50;99.90;;;18.07;88.23;95195.72;10298749;28;2321;-81
2021/08/01 15:00:20;;;;;;;;;;;18.60;99.90;;;18.21;89.91;95201.66;10287159;28;2659;-81
2021/08/01 15:05:23;;;;;;;;;;;18.80;99.90;;;18.15;90.13;95205.72;10308857;28;2403;-82
2021/08/01 15:10:26;;;;;;;;;;;18.90;99.90;;;18.05;91.39;95196.03;10291903;28;2276;-81
2021/08/01 15:15:29;;;;;;;;;;;19.00;99.90;;;18.33;88.84;95193.53;10282002;28;2301;-83
2021/08/01 15:20:35;;;;;;;;;;;19.00;99.90;;;18.69;82.07;95194.72;10282641;28;2204;-84
2021/08/01 15:25:37;;;;;;;;;;;19.10;99.90;;;18.30;86.70;95198.84;10318411;28;2290;-81
2021/08/01 15:30:40;;;;;;;;;;;19.10;99.90;;;17.89;84.24;95207.88;10326294;28;2199;-83
2021/08/01 15:35:43;;;;;;;;;;;18.90;99.90;;;17.92;86.43;95194.41;10315873;28;2083;-81
2021/08/01 15:40:46;;;;;;;;;;;18.80;99.90;;;18.16;84.81;95193.69;10312384;28;2154;-82
2021/08/01 15:45:49;;;;;;;;;;;18.70;99.90;;;18.15;85.65;95203.00;10322658;28;2238;-81
2021/08/01 15:50:52;;;;;;;;;;;18.80;99.90;;;18.84;80.78;95201.44;10314254;28;2147;-80
2021/08/01 15:55:55;;;;;;;;;;;19.10;99.90;;;19.27;77.27;95217.19;10306229;28;2336;-81
2021/08/01 16:00:57;;;;;;;;;;;19.50;99.90;;;18.47;78.89;95208.75;10300427;28;2294;-80
2021/08/01 16:06:01;;;;;;;;;;;19.60;99.90;;;18.67;78.70;95209.81;10303479;28;2340;-81
2021/08/01 16:11:03;;;;;;;;;;;19.30;99.90;;;18.65;77.03;95210.13;10294959;28;2321;-81
2021/08/01 16:16:06;;;;;;;;;;;19.30;99.90;;;18.59;76.23;95214.22;10290077;28;2266;-80
2021/08/01 16:21:09;;;;;;;;;;;19.20;99.90;;;18.34;77.29;95226.97;10291001;28;1747;-81
2021/08/01 16:26:12;;;;;;;;;;;19.10;99.90;;;18.07;75.92;95222.91;10302713;28;2316;-82
2021/08/01 16:31:15;;;;;;;;;;;18.90;99.90;;;17.83;79.42;95221.69;10287117;28;2327;-80
2021/08/01 16:36:18;;;;;;;;;;;18.70;99.90;;;17.77;78.18;95230.38;10314173;28;2282;-82
2021/08/01 16:41:21;;;;;;;;;;;18.60;99.90;;;17.62;81.72;95234.44;10296579;28;2290;-82
2021/08/01 16:46:24;;;;;;;;;;;18.50;99.90;;;17.31;83.49;95218.53;10304548;28;2283;-80
2021/08/01 16:51:27;;;;;;;;;;;18.30;99.90;;;17.07;83.20;95230.00;10292984;28;2278;-82
2021/08/01 16:56:29;;;;;;;;;;;18.10;99.90;;;16.84;84.76;95228.69;10298457;28;2369;-83
2021/08/01 17:01:32;;;;;;;;;;;17.90;99.90;;;16.56;85.13;95236.44;10299474;28;2322;-83
2021/08/01 17:06:35;;;;;;;;;;;17.60;99.90;;;16.30;89.87;95252.78;10302925;28;2368;-79
2021/08/01 17:11:39;;;;;;;;;;;17.40;99.90;;;16.23;89.14;95261.41;10310711;28;2306;-82
2021/08/01 17:16:42;;;;;;;;;;;17.30;99.90;;;16.17;88.70;95262.69;10304013;28;2083;-82
2021/08/01 17:21:45;;;;;;;;;;;17.20;99.90;;;16.04;91.17;95269.09;10308428;28;2260;-81
2021/08/01 17:26:48;;;;;;;;;;;17.10;99.90;;;15.93;94.80;95279.44;10304867;28;2352;-80
2021/08/01 17:31:53;;;;;;;;;;;17.00;99.90;;;15.70;97.28;95281.50;10296542;28;2239;-84
2021/08/01 17:36:56;;;;;;;;;;;16.80;99.90;;;15.59;96.80;95297.25;10297002;28;2408;-82
2021/08/01 17:41:58;;;;;;;;;;;16.70;99.90;;;15.45;99.81;95299.28;10291455;28;2328;-81
2021/08/01 17:47:01;;;;;;;;;;;16.60;99.90;;;15.37;99.02;95302.78;10302860;28;2348;-82
2021/08/01 17:52:04;;;;;;;;;;;16.50;99.90;;;15.37;100.00;95305.47;10313359;28;2259;-81
2021/08/01 17:57:07;;;;;;;;;;;16.40;99.90;;;15.33;100.00;95308.03;10306753;28;2309;-83
2021/08/01 18:02:10;;;;;;;;;;;16.40;99.90;;;15.36;100.00;95295.78;10293581;28;2321;-82
2021/08/01 18:07:13;;;;;;;;;;;16.40;99.90;;;15.28;100.00;95296.56;10294076;28;2384;-84
2021/08/01 18:12:16;;;;;;;;;;;16.40;99.90;;;15.19;100.00;95309.25;10302849;28;1783;-81
2021/08/01 18:17:19;;;;;;;;;;;16.30;99.90;;;15.09;100.00;95316.56;10323487;28;2251;-83
2021/08/01 18:22:22;;;;;;;;;;;16.20;99.90;;;15.02;100.00;95320.84;10302637;28;2071;-83
2021/08/01 18:27:26;;;;;;;;;;;16.10;99.90;;;14.95;100.00;95317.75;10314932;28;1958;-81
2021/08/01 18:32:29;;;;;;;;;;;16.00;99.90;;;14.88;100.00;95327.13;10306960;28;2337;-84
2021/08/01 18:37:34;;;;;;;;;;;16.00;99.90;;;14.74;100.00;95331.03;10309167;28;2397;-83
2021/08/01 18:42:42;;;;;;;;;;;15.90;99.90;;;14.64;100.00;95329.41;10291950;28;2329;-83
2021/08/01 18:47:49;;;;;;;;;;;15.80;99.90;;;14.60;100.00;95337.31;10286596;28;2309;-82
2021/08/01 18:52:52;;;;;;;;;;;15.70;99.90;;;14.57;100.00;95345.28;10304101;28;2345;-81
2021/08/01 18:57:55;;;;;;;;;;;15.70;99.90;;;14.55;100.00;95355.59;10295269;28;2320;-83
2021/08/01 19:02:57;;;;;;;;;;;15.60;99.90;;;14.56;100.00;95357.97;10306017;28;2261;-80
2021/08/01 19:08:00;;;;;;;;;;;15.60;99.90;;;14.58;100.00;95354.97;10317800;28;2673;-80
2021/08/01 19:13:03;;;;;;;;;;;15.60;99.90;;;14.56;100.00;95363.38;10312814;28;1550;-80
2021/08/01 19:18:06;;;;;;;;;;;15.60;99.90;;;14.56;100.00;95378.81;10299726;28;2202;-81
2021/08/01 19:23:09;;;;;;;;;;;15.60;99.90;;;14.52;100.00;95391.38;10298004;28;2377;-82
2021/08/01 19:28:12;;;;;;;;;;;15.60;99.90;;;14.33;100.00;95391.53;10305936;28;2459;-84
2021/08/01 19:33:15;;;;;;;;;;;15.50;99.90;;;14.12;100.00;95395.78;10287172;28;2262;-83
2021/08/01 19:38:17;;;;;;;;;;;15.30;99.90;;;13.89;100.00;95409.25;10299153;28;2270;-81
2021/08/01 19:43:20;;;;;;;;;;;15.10;99.90;;;13.77;100.00;95408.97;10300844;28;2368;-81
2021/08/01 19:48:23;;;;;;;;;;;15.00;99.90;;;13.72;100.00;95406.38;10314505;28;2055;-82
2021/08/01 19:53:29;;;;;;;;;;;14.80;99.90;;;13.74;100.00;95404.16;10294327;28;2312;-83
2021/08/01 19:58:31;;;;;;;;;;;14.80;99.90;;;13.74;100.00;95414.97;10300143;28;1929;-82
2021/08/01 20:03:34;;;;;;;;;;;14.80;99.90;;;13.74;100.00;95417.66;10293683;28;1448;-84
2021/08/01 20:08:37;;;;;;;;;;;14.80;99.90;;;13.77;100.00;95422.47;10299002;28;1926;-80
2021/08/01 20:13:40;;;;;;;;;;;14.80;99.90;;;13.76;100.00;95415.47;10299030;28;1240;-81
2021/08/01 20:18:43;;;;;;;;;;;14.80;99.90;;;13.74;100.00;95413.09;10291839;28;1680;-82
2021/08/01 20:23:46;;;;;;;;;;;14.80;99.90;;;13.74;100.00;95420.38;10304229;28;1201;-82
2021/08/01 20:28:51;;;;;;;;;;;14.80;99.90;;;13.79;100.00;95431.06;10320683;28;1914;-83
2021/08/01 20:33:54;;;;;;;;;;;14.80;99.90;;;13.77;100.00;95444.09;10320536;28;1501;-81
2021/08/01 20:38:57;;;;;;;;;;;14.90;99.90;;;13.75;100.00;95443.59;10316233;28;1311;-81
2021/08/01 20:43:59;;;;;;;;;;;14.80;99.90;;;13.77;100.00;95444.09;10301395;28;1668;-83
2021/08/01 20:49:02;;;;;;;;;;;14.80;99.90;;;13.72;100.00;95445.00;10302132;28;1972;-84
2021/08/01 20:54:06;;;;;;;;;;;14.80;99.90;;;13.63;100.00;95454.13;10323731;28;1822;-78
2021/08/01 20:59:09;;;;;;;;;;;14.70;99.90;;;13.50;100.00;95445.72;10318813;28;1565;-82
2021/08/01 21:04:12;;;;;;;;;;;14.60;99.90;;;13.50;100.00;95458.41;10316081;28;2355;-80
2021/08/01 21:09:14;;;;;;;;;;;14.60;99.90;;;13.48;100.00;95449.78;10315259;28;2349;-79
2021/08/01 21:14:17;;;;;;;;;;;14.50;99.90;;;13.42;100.00;95454.50;10314061;28;1936;-81
2021/08/01 21:19:20;;;;;;;;;;;14.50;99.90;;;13.46;100.00;95452.00;10297148;28;2183;-80
2021/08/01 21:24:23;;;;;;;;;;;14.50;99.90;;;13.54;100.00;95456.69;10286990;28;2329;-83
2021/08/01 21:29:25;;;;;;;;;;;14.60;99.90;;;13.51;100.00;95455.41;10284981;28;2314;-80
2021/08/01 21:34:28;;;;;;;;;;;14.60;99.90;;;13.47;100.00;95454.38;10295954;28;2359;-81
2021/08/01 21:39:31;;;;;;;;;;;14.60;99.90;;;13.51;100.00;95458.09;10319108;28;2262;-81
2021/08/01 21:44:34;;;;;;;;;;;14.60;99.90;;;13.57;100.00;95464.22;10325765;28;2420;-82
2021/08/01 21:49:36;;;;;;;;;;;14.60;99.90;;;13.49;100.00;95454.13;10314421;28;2146;-82
2021/08/01 21:54:41;;;;;;;;;;;14.60;99.90;;;13.53;100.00;95455.09;10323659;28;1632;-81
2021/08/01 21:59:44;;;;;;;;;;;14.60;99.90;;;13.46;100.00;95452.78;10303142;28;2468;-79
2021/08/01 22:04:47;;;;;;;;;;;14.60;99.90;;;13.44;100.00;95463.09;10292222;28;2214;-81
2021/08/01 22:09:50;;;;;;;;;;;14.60;99.90;;;13.48;100.00;95466.78;10289607;28;1905;-80
2021/08/01 22:14:53;;;;;;;;;;;14.60;99.90;;;13.45;100.00;95453.91;10320070;28;2362;-79
2021/08/01 22:19:55;;;;;;;;;;;14.60;99.90;;;13.35;100.00;95464.88;10305058;28;2393;-79
2021/08/01 22:24:58;;;;;;;;;;;14.50;99.90;;;13.26;100.00;95480.16;10300231;28;2422;-81
2021/08/01 22:30:01;;;;;;;;;;;14.40;99.90;;;13.18;100.00;95480.84;10304214;28;2511;-82
2021/08/01 22:35:04;;;;;;;;;;;14.30;99.90;;;13.15;100.00;95482.22;10302936;28;2026;-79
2021/08/01 22:40:07;;;;;;;;;;;14.30;99.90;;;13.23;100.00;95476.19;10295698;28;2278;-80
2021/08/01 22:45:10;;;;;;;;;;;14.30;99.90;;;13.20;100.00;95481.31;10302939;28;2412;-82
2021/08/01 22:50:13;;;;;;;;;;;14.30;99.90;;;13.18;100.00;95470.03;10301980;28;2323;-82
2021/08/01 22:55:15;;;;;;;;;;;14.30;99.90;;;13.12;100.00;95477.41;10288206;28;2309;-84
2021/08/01 23:00:18;;;;;;;;;;;14.30;99.90;;;13.04;100.00;95483.50;10276513;28;2527;-82